createdAt,value
2019-03-30T00:00:27.823Z,13.20
2019-03-30T00:03:00.405Z,12.93
2019-03-30T00:05:32.923Z,13.00
2019-03-30T00:08:05.441Z,14.23
2019-03-30T00:10:37.973Z,13.43
2019-03-30T00:13:10.473Z,14.93
2019-03-30T00:15:42.981Z,13.60
2019-03-30T00:18:15.457Z,14.57
2019-03-30T00:20:48.128Z,14.90
2019-03-30T00:23:20.629Z,15.40
2019-03-30T00:25:53.211Z,15.70
2019-03-30T00:28:25.696Z,13.73
2019-03-30T00:30:58.236Z,14.73
2019-03-30T00:33:30.748Z,16.10
2019-03-30T00:36:03.287Z,15.07
2019-03-30T00:38:35.809Z,16.03
2019-03-30T00:41:08.338Z,14.93
2019-03-30T00:43:40.807Z,15.30
2019-03-30T00:46:13.308Z,15.80
2019-03-30T00:48:45.784Z,15.63
2019-03-30T00:51:18.290Z,16.17
2019-03-30T00:53:50.789Z,16.33
2019-03-30T00:56:23.286Z,14.53
2019-03-30T00:58:55.810Z,15.30
2019-03-30T01:01:28.355Z,16.43
2019-03-30T01:04:01.047Z,15.70
2019-03-30T01:06:33.553Z,15.60
2019-03-30T01:09:06.787Z,15.53
2019-03-30T01:11:39.292Z,16.00
2019-03-30T01:14:11.783Z,15.13
2019-03-30T01:16:44.303Z,15.17
2019-03-30T01:19:16.800Z,15.10
2019-03-30T01:21:49.783Z,14.13
2019-03-30T01:24:22.317Z,15.73
2019-03-30T01:26:54.828Z,16.17
2019-03-30T01:29:27.329Z,14.87
2019-03-30T01:31:59.850Z,16.60
2019-03-30T01:34:32.358Z,15.33
2019-03-30T01:37:04.906Z,15.23
2019-03-30T01:39:37.400Z,15.87
2019-03-30T01:42:09.940Z,15.87
2019-03-30T01:44:42.444Z,16.33
2019-03-30T01:47:14.966Z,16.93
2019-03-30T01:49:47.470Z,16.87
2019-03-30T01:52:19.997Z,16.17
2019-03-30T01:54:52.520Z,16.53
2019-03-30T01:57:25.037Z,14.40
2019-03-30T01:59:57.538Z,16.40
2019-03-30T02:02:30.091Z,16.10
2019-03-30T02:05:02.613Z,15.93
2019-03-30T02:07:35.112Z,14.87
2019-03-30T02:10:08.149Z,17.00
2019-03-30T02:12:40.649Z,16.03
2019-03-30T02:15:13.218Z,16.20
2019-03-30T02:17:45.771Z,15.40
2019-03-30T02:20:30.891Z,17.13
2019-03-30T02:23:02.649Z,15.80
2019-03-30T02:25:35.174Z,16.23
2019-03-30T02:28:07.885Z,16.33
2019-03-30T02:30:40.424Z,16.50
2019-03-30T02:33:12.906Z,16.67
2019-03-30T02:35:45.533Z,16.43
2019-03-30T02:38:18.020Z,16.63
2019-03-30T02:40:50.631Z,16.83
2019-03-30T02:43:23.157Z,16.33
2019-03-30T02:45:55.712Z,16.73
2019-03-30T02:48:28.197Z,16.67
2019-03-30T02:51:00.694Z,16.17
2019-03-30T02:53:33.181Z,15.97
2019-03-30T02:56:05.699Z,17.50
2019-03-30T02:58:38.207Z,16.63
2019-03-30T03:01:10.740Z,16.83
2019-03-30T03:03:43.238Z,15.60
2019-03-30T03:06:15.762Z,16.33
2019-03-30T03:08:48.243Z,17.30
2019-03-30T03:11:20.746Z,15.63
2019-03-30T03:13:53.231Z,17.63
2019-03-30T03:16:27.618Z,16.00
2019-03-30T03:19:00.139Z,16.33
2019-03-30T03:21:32.652Z,16.90
2019-03-30T03:24:05.140Z,17.40
2019-03-30T03:26:37.644Z,17.77
2019-03-30T03:29:10.148Z,17.17
2019-03-30T03:31:42.670Z,17.20
2019-03-30T03:34:15.155Z,17.37
2019-03-30T03:36:47.652Z,16.87
2019-03-30T03:39:20.175Z,17.97
2019-03-30T03:41:52.693Z,15.23
2019-03-30T03:44:25.171Z,17.93
2019-03-30T03:46:57.676Z,17.70
2019-03-30T03:49:30.178Z,16.77
2019-03-30T03:52:02.769Z,17.10
2019-03-30T03:54:35.315Z,16.13
2019-03-30T03:57:09.632Z,17.87
2019-03-30T03:59:42.214Z,18.00
2019-03-30T04:02:16.478Z,17.97
2019-03-30T04:04:49.375Z,17.50
2019-03-30T04:07:23.226Z,16.97
2019-03-30T04:09:57.511Z,17.50
2019-03-30T04:12:31.853Z,17.53
2019-03-30T04:15:07.926Z,16.53
2019-03-30T04:17:40.457Z,16.50
2019-03-30T04:20:16.664Z,19.17
2019-03-30T04:22:49.171Z,18.47
2019-03-30T04:25:21.970Z,17.17
2019-03-30T04:27:54.456Z,16.90
2019-03-30T04:30:26.956Z,17.03
2019-03-30T04:32:59.507Z,17.53
2019-03-30T04:35:32.001Z,18.63
2019-03-30T04:38:04.518Z,17.17
2019-03-30T04:40:37.007Z,16.93
2019-03-30T04:43:09.543Z,16.77
2019-03-30T04:45:42.035Z,18.30
2019-03-30T04:48:14.634Z,18.53
2019-03-30T04:50:47.116Z,18.23
2019-03-30T04:53:19.618Z,19.50
2019-03-30T04:55:52.095Z,16.53
2019-03-30T04:58:24.611Z,18.40
2019-03-30T05:00:57.147Z,17.87
2019-03-30T05:03:29.667Z,20.13
2019-03-30T05:06:02.201Z,19.13
2019-03-30T05:08:34.700Z,18.63
2019-03-30T05:11:07.204Z,17.70
2019-03-30T05:13:39.709Z,18.83
2019-03-30T05:16:12.211Z,17.73
2019-03-30T05:18:44.743Z,18.60
2019-03-30T05:21:17.217Z,19.80
2019-03-30T05:23:49.742Z,19.10
2019-03-30T05:26:22.316Z,19.23
2019-03-30T05:28:54.869Z,19.23
2019-03-30T05:31:27.394Z,19.77
2019-03-30T05:33:59.926Z,20.43
2019-03-30T05:36:32.432Z,18.83
2019-03-30T05:39:05.093Z,20.47
2019-03-30T05:41:37.581Z,20.10
2019-03-30T05:44:10.121Z,19.87
2019-03-30T05:46:42.612Z,19.87
2019-03-30T05:49:15.125Z,20.40
2019-03-30T05:51:47.638Z,19.20
2019-03-30T05:54:20.170Z,18.97
2019-03-30T05:56:52.717Z,20.70
2019-03-30T05:59:25.276Z,20.87
2019-03-30T06:01:57.793Z,18.40
2019-03-30T06:04:30.330Z,18.80
2019-03-30T06:07:02.849Z,19.03
2019-03-30T06:09:35.432Z,18.57
2019-03-30T06:12:07.923Z,19.47
2019-03-30T06:14:40.447Z,18.63
2019-03-30T06:17:12.985Z,18.20
2019-03-30T06:19:45.554Z,19.10
2019-03-30T06:22:18.082Z,18.17
2019-03-30T06:24:50.615Z,18.77
2019-03-30T06:27:23.137Z,19.60
2019-03-30T06:30:15.313Z,20.13
2019-03-30T06:32:48.004Z,18.97
2019-03-30T06:35:21.104Z,18.80
2019-03-30T06:37:53.762Z,18.03
2019-03-30T06:40:26.323Z,19.30
2019-03-30T06:42:58.843Z,18.93
2019-03-30T06:45:32.848Z,19.67
2019-03-30T06:48:05.397Z,18.93
2019-03-30T06:50:37.944Z,18.17
2019-03-30T06:53:10.561Z,19.60
2019-03-30T06:55:43.119Z,18.60
2019-03-30T06:58:15.642Z,19.63
2019-03-30T07:00:48.307Z,20.07
2019-03-30T07:03:20.864Z,20.20
2019-03-30T07:05:54.579Z,19.60
2019-03-30T07:08:28.862Z,20.70
2019-03-30T07:11:02.342Z,20.23
2019-03-30T07:13:38.049Z,20.73
2019-03-30T07:16:10.531Z,20.47
2019-03-30T07:18:43.241Z,20.07
2019-03-30T07:21:15.766Z,19.30
2019-03-30T07:23:48.253Z,19.90
2019-03-30T07:26:20.760Z,19.37
2019-03-30T07:28:53.255Z,19.47
2019-03-30T07:31:25.755Z,20.77
2019-03-30T07:33:58.273Z,20.43
2019-03-30T07:36:30.808Z,21.60
2019-03-30T07:39:04.211Z,21.90
2019-03-30T07:41:36.734Z,21.70
2019-03-30T07:44:09.228Z,20.33
2019-03-30T07:46:41.747Z,22.37
2019-03-30T07:49:14.264Z,20.07
2019-03-30T07:51:46.748Z,21.70
2019-03-30T07:54:19.305Z,20.00
2019-03-30T07:57:04.306Z,21.07
2019-03-30T07:59:27.219Z,20.20
2019-03-30T08:01:59.735Z,21.17
2019-03-30T08:04:32.260Z,20.53
2019-03-30T08:07:04.760Z,20.57
2019-03-30T08:09:37.417Z,22.27
2019-03-30T08:12:09.933Z,21.93
2019-03-30T08:14:45.129Z,21.07
2019-03-30T08:17:16.862Z,20.33
2019-03-30T08:19:50.449Z,20.73
2019-03-30T08:22:23.021Z,22.87
2019-03-30T08:24:55.604Z,21.87
2019-03-30T08:27:28.110Z,21.07
2019-03-30T08:30:00.618Z,21.20
2019-03-30T08:32:33.100Z,21.57
2019-03-30T08:35:05.984Z,19.87
2019-03-30T08:37:38.481Z,21.53
2019-03-30T08:40:11.114Z,20.63
2019-03-30T08:42:43.605Z,18.90
2019-03-30T08:45:16.127Z,19.40
2019-03-30T08:47:48.635Z,20.17
2019-03-30T08:50:21.180Z,21.53
2019-03-30T08:52:53.677Z,19.30
2019-03-30T08:55:26.204Z,21.25
2019-03-30T08:57:58.717Z,20.72
2019-03-30T09:00:41.033Z,20.57
2019-03-30T09:03:13.558Z,20.32
2019-03-30T09:05:46.072Z,18.82
2019-03-30T09:08:18.601Z,21.35
2019-03-30T09:10:51.154Z,19.23
2019-03-30T09:13:23.663Z,20.23
2019-03-30T09:15:56.204Z,20.32
2019-03-30T09:18:28.759Z,19.65
2019-03-30T09:21:01.445Z,20.12
2019-03-30T09:23:33.954Z,18.07
2019-03-30T09:26:06.540Z,19.65
2019-03-30T09:28:39.055Z,17.67
2019-03-30T09:31:11.605Z,18.77
2019-03-30T09:33:44.149Z,18.73
2019-03-30T09:36:16.674Z,19.12
2019-03-30T09:38:49.183Z,18.05
2019-03-30T09:41:21.726Z,18.60
2019-03-30T09:43:54.296Z,18.17
2019-03-30T09:46:26.825Z,17.48
2019-03-30T09:48:59.406Z,17.40
2019-03-30T09:51:31.941Z,17.37
2019-03-30T09:54:04.491Z,16.57
2019-03-30T09:56:37.101Z,16.77
2019-03-30T09:59:09.648Z,17.37
2019-03-30T10:01:42.208Z,16.50
2019-03-30T10:04:14.761Z,18.02
2019-03-30T10:06:47.308Z,17.32
2019-03-30T10:09:19.867Z,17.90
2019-03-30T10:11:52.416Z,16.97
2019-03-30T10:14:24.925Z,16.62
2019-03-30T10:16:57.421Z,16.55
2019-03-30T10:19:30.124Z,15.95
2019-03-30T10:22:02.635Z,15.10
2019-03-30T10:24:38.280Z,14.68
2019-03-30T10:27:09.596Z,15.40
2019-03-30T10:29:42.153Z,16.00
2019-03-30T10:32:14.693Z,15.20
2019-03-30T10:34:47.241Z,14.13
2019-03-30T10:37:19.746Z,15.30
2019-03-30T10:39:52.291Z,16.00
2019-03-30T10:42:24.966Z,13.68
2019-03-30T10:44:57.498Z,13.98
2019-03-30T10:47:30.012Z,13.93
2019-03-30T10:50:02.590Z,12.80
2019-03-30T10:52:35.091Z,13.68
2019-03-30T10:55:07.643Z,14.05
2019-03-30T10:57:40.193Z,13.15
2019-03-30T11:00:18.057Z,13.35
2019-03-30T11:02:50.598Z,12.25
2019-03-30T11:05:23.154Z,11.73
2019-03-30T11:07:55.692Z,9.60
2019-03-30T11:10:28.312Z,10.43
2019-03-30T11:13:00.963Z,11.18
2019-03-30T11:15:34.241Z,10.90
2019-03-30T11:18:07.026Z,12.25
2019-03-30T11:20:39.547Z,12.75
2019-03-30T11:23:12.063Z,10.53
2019-03-30T11:25:44.630Z,11.20
2019-03-30T11:28:17.110Z,11.03
2019-03-30T11:30:49.789Z,10.85
2019-03-30T11:33:22.297Z,11.00
2019-03-30T11:35:54.833Z,11.00
2019-03-30T11:38:27.359Z,11.90
2019-03-30T11:40:59.887Z,12.35
2019-03-30T11:43:32.387Z,11.70
2019-03-30T11:46:05.015Z,11.93
2019-03-30T11:48:37.925Z,10.93
2019-03-30T11:51:10.426Z,10.85
2019-03-30T11:53:42.925Z,9.88
2019-03-30T11:56:15.455Z,10.93
2019-03-30T11:58:47.973Z,11.10
2019-03-30T12:01:21.869Z,8.55
2019-03-30T12:03:54.587Z,10.03
2019-03-30T12:06:27.120Z,9.83
2019-03-30T12:08:59.684Z,9.08
2019-03-30T12:11:32.229Z,9.05
2019-03-30T12:14:04.761Z,9.60
2019-03-30T12:16:37.341Z,10.28
2019-03-30T12:19:09.961Z,9.58
2019-03-30T12:21:42.489Z,8.85
2019-03-30T12:24:15.031Z,9.48
2019-03-30T12:26:47.555Z,9.60
2019-03-30T12:29:20.130Z,9.15
2019-03-30T12:31:52.652Z,10.72
2019-03-30T12:34:25.361Z,8.50
2019-03-30T12:36:57.919Z,7.78
2019-03-30T12:39:30.412Z,8.38
2019-03-30T12:42:02.941Z,8.28
2019-03-30T12:44:35.529Z,8.65
2019-03-30T12:47:10.355Z,7.95
2019-03-30T12:49:45.094Z,8.10
2019-03-30T12:52:16.880Z,7.78
2019-03-30T12:54:49.437Z,8.68
2019-03-30T12:57:21.998Z,8.03
2019-03-30T12:59:54.489Z,7.28
2019-03-30T13:02:27.077Z,8.65
2019-03-30T13:04:59.688Z,6.90
2019-03-30T13:07:32.250Z,7.12
2019-03-30T13:10:05.777Z,7.00
2019-03-30T13:12:38.352Z,7.25
2019-03-30T13:15:10.992Z,7.47
2019-03-30T13:17:43.552Z,7.85
2019-03-30T13:20:16.232Z,7.42
2019-03-30T13:22:48.789Z,7.00
2019-03-30T13:25:21.386Z,8.15
2019-03-30T13:27:53.917Z,8.33
2019-03-30T13:30:26.487Z,7.47
2019-03-30T13:32:58.999Z,8.33
2019-03-30T13:35:31.575Z,7.22
2019-03-30T13:38:04.090Z,8.18
2019-03-30T13:40:36.638Z,7.53
2019-03-30T13:43:09.145Z,7.22
2019-03-30T13:45:41.717Z,8.95
2019-03-30T13:48:14.255Z,7.15
2019-03-30T13:50:46.803Z,7.70
2019-03-30T13:53:19.408Z,8.10
2019-03-30T13:55:51.932Z,7.92
2019-03-30T13:58:24.460Z,8.65
2019-03-30T14:00:56.979Z,7.35
2019-03-30T14:03:29.508Z,7.67
2019-03-30T14:06:02.036Z,8.40
2019-03-30T14:08:34.568Z,8.28
2019-03-30T14:11:07.117Z,7.67
2019-03-30T14:13:39.647Z,7.25
2019-03-30T14:16:12.233Z,6.45
2019-03-30T14:18:44.805Z,6.80
2019-03-30T14:21:17.360Z,7.35
2019-03-30T14:23:49.927Z,7.80
2019-03-30T14:26:31.192Z,7.42
2019-03-30T14:28:56.857Z,7.62
2019-03-30T14:31:29.394Z,7.37
2019-03-30T14:34:01.920Z,8.13
2019-03-30T14:36:34.499Z,8.13
2019-03-30T14:39:07.173Z,7.65
2019-03-30T14:41:39.713Z,7.78
2019-03-30T14:44:12.288Z,7.37
2019-03-30T14:46:44.871Z,7.70
2019-03-30T14:49:17.378Z,7.37
2019-03-30T14:51:49.936Z,8.35
2019-03-30T14:54:22.438Z,7.50
2019-03-30T14:56:55.002Z,7.90
2019-03-30T14:59:27.540Z,7.75
2019-03-30T15:02:00.084Z,8.40
2019-03-30T15:04:32.626Z,7.78
2019-03-30T15:07:05.169Z,8.40
2019-03-30T15:09:37.722Z,7.30
2019-03-30T15:12:10.254Z,7.58
2019-03-30T15:14:42.794Z,7.95
2019-03-30T15:17:15.344Z,7.95
2019-03-30T15:19:47.871Z,7.15
2019-03-30T15:22:20.416Z,7.25
2019-03-30T15:24:52.957Z,7.33
2019-03-30T15:27:25.477Z,7.55
2019-03-30T15:29:58.179Z,7.67
2019-03-30T15:32:30.709Z,7.15
2019-03-30T15:35:03.513Z,6.42
2019-03-30T15:37:36.046Z,7.37
2019-03-30T15:40:08.909Z,7.15
2019-03-30T15:42:41.427Z,6.22
2019-03-30T15:45:13.978Z,6.53
2019-03-30T15:47:46.515Z,6.00
2019-03-30T15:50:19.201Z,7.00
2019-03-30T15:52:51.700Z,8.00
2019-03-30T15:55:24.296Z,7.87
2019-03-30T15:57:57.083Z,7.75
2019-03-30T16:00:29.670Z,7.87
2019-03-30T16:03:02.240Z,6.75
2019-03-30T16:05:34.771Z,7.17
2019-03-30T16:08:07.357Z,6.62
2019-03-30T16:10:39.910Z,6.12
2019-03-30T16:13:14.580Z,6.40
2019-03-30T16:15:46.963Z,6.25
2019-03-30T16:18:19.508Z,6.22
2019-03-30T16:20:52.052Z,6.72
2019-03-30T16:23:24.547Z,6.17
2019-03-30T16:25:57.118Z,5.85
2019-03-30T16:28:29.646Z,6.55
2019-03-30T16:31:02.225Z,6.10
2019-03-30T16:33:34.731Z,6.05
2019-03-30T16:36:07.282Z,6.30
2019-03-30T16:38:39.810Z,5.58
2019-03-30T16:41:12.348Z,5.75
2019-03-30T16:43:44.828Z,5.65
2019-03-30T16:46:17.446Z,5.40
2019-03-30T16:48:50.084Z,5.40
2019-03-30T16:51:22.605Z,5.90
2019-03-30T16:53:55.163Z,5.65
2019-03-30T16:56:27.714Z,5.42
2019-03-30T16:59:00.250Z,5.15
2019-03-30T17:01:32.778Z,5.50
2019-03-30T17:04:05.339Z,4.87
2019-03-30T17:06:37.877Z,4.80
2019-03-30T17:09:10.427Z,4.90
2019-03-30T17:11:42.996Z,5.22
2019-03-30T17:14:15.562Z,5.20
2019-03-30T17:16:48.075Z,5.22
2019-03-30T17:19:20.639Z,5.50
2019-03-30T17:21:53.414Z,5.17
2019-03-30T17:24:25.969Z,5.08
2019-03-30T17:26:58.539Z,4.90
2019-03-30T17:29:31.089Z,5.08
2019-03-30T17:32:03.659Z,5.00
2019-03-30T17:34:36.174Z,5.10
2019-03-30T17:37:08.741Z,4.95
2019-03-30T17:39:41.286Z,5.28
2019-03-30T17:42:13.868Z,6.78
2019-03-30T17:44:46.400Z,5.42
2019-03-30T17:47:19.022Z,5.80
2019-03-30T17:49:51.539Z,5.83
2019-03-30T17:52:24.094Z,5.70
2019-03-30T17:54:56.663Z,4.95
2019-03-30T17:57:29.221Z,4.65
2019-03-30T18:00:01.755Z,5.08
2019-03-30T18:02:34.338Z,4.80
2019-03-30T18:05:06.942Z,4.87
2019-03-30T18:07:39.575Z,4.80
2019-03-30T18:10:12.112Z,4.70
2019-03-30T18:12:44.713Z,4.60
2019-03-30T18:15:17.303Z,4.90
2019-03-30T18:17:49.835Z,4.85
2019-03-30T18:20:22.417Z,5.78
2019-03-30T18:22:54.966Z,5.37
2019-03-30T18:25:27.690Z,5.03
2019-03-30T18:28:00.259Z,5.37
2019-03-30T18:30:39.371Z,8.10
2019-03-30T18:33:11.898Z,6.33
2019-03-30T18:35:44.475Z,5.57
2019-03-30T18:38:17.041Z,6.03
2019-03-30T18:40:49.665Z,5.80
2019-03-30T18:43:22.205Z,5.67
2019-03-30T18:45:54.822Z,6.17
2019-03-30T18:48:27.452Z,6.67
2019-03-30T18:51:00.428Z,5.87
2019-03-30T18:53:33.011Z,6.80
2019-03-30T18:56:05.563Z,6.47
2019-03-30T18:58:41.878Z,7.17
2019-03-30T19:01:12.618Z,7.30
2019-03-30T19:03:45.160Z,6.93
2019-03-30T19:06:17.740Z,6.90
2019-03-30T19:08:50.409Z,6.77
2019-03-30T19:11:23.043Z,7.07
2019-03-30T19:13:55.602Z,7.33
2019-03-30T19:16:28.169Z,6.93
2019-03-30T19:19:00.723Z,7.60
2019-03-30T19:21:33.480Z,7.13
2019-03-30T19:24:06.082Z,7.63
2019-03-30T19:26:38.654Z,8.57
2019-03-30T19:29:11.244Z,8.13
2019-03-30T19:31:43.829Z,8.23
2019-03-30T19:34:16.382Z,9.30
2019-03-30T19:36:49.023Z,8.20
2019-03-30T19:39:21.568Z,8.10
2019-03-30T19:41:54.178Z,8.13
2019-03-30T19:44:26.747Z,7.57
2019-03-30T19:46:59.329Z,7.50
2019-03-30T19:49:31.928Z,7.60
2019-03-30T19:52:05.767Z,7.60
2019-03-30T19:54:38.489Z,8.37
2019-03-30T19:57:11.116Z,7.47
2019-03-30T19:59:43.679Z,6.77
2019-03-30T20:02:16.323Z,7.90
2019-03-30T20:04:48.946Z,7.20
2019-03-30T20:07:21.526Z,7.03
2019-03-30T20:09:54.135Z,7.07
2019-03-30T20:12:26.881Z,7.20
2019-03-30T20:14:59.522Z,7.90
2019-03-30T20:17:32.197Z,8.20
2019-03-30T20:20:05.897Z,8.53
2019-03-30T20:22:38.507Z,7.73
2019-03-30T20:25:11.275Z,8.40
2019-03-30T20:27:43.847Z,8.87
2019-03-30T20:30:16.785Z,8.20
2019-03-30T20:32:49.342Z,7.20
2019-03-30T20:35:21.994Z,7.63
2019-03-30T20:37:54.631Z,6.97
2019-03-30T20:40:27.167Z,7.20
2019-03-30T20:42:59.798Z,7.70
2019-03-30T20:45:32.729Z,7.53
2019-03-30T20:48:05.745Z,8.03
2019-03-30T20:50:39.024Z,9.27
2019-03-30T20:53:11.626Z,10.07
2019-03-30T20:55:44.257Z,9.83
2019-03-30T20:58:16.824Z,8.83
2019-03-30T21:00:49.443Z,9.07
2019-03-30T21:03:23.538Z,9.70
2019-03-30T21:05:56.080Z,9.23
2019-03-30T21:08:28.653Z,9.00
2019-03-30T21:11:03.370Z,8.87
2019-03-30T21:13:35.908Z,9.20
2019-03-30T21:16:08.517Z,9.70
2019-03-30T21:18:42.561Z,8.93
2019-03-30T21:21:15.154Z,8.70
2019-03-30T21:23:47.722Z,9.13
2019-03-30T21:26:20.279Z,9.43
2019-03-30T21:28:52.855Z,9.10
2019-03-30T21:31:25.375Z,9.10
2019-03-30T21:33:57.965Z,9.43
2019-03-30T21:36:30.520Z,8.93
2019-03-30T21:39:04.940Z,9.17
2019-03-30T21:41:37.525Z,9.80
2019-03-30T21:44:21.422Z,10.50
2019-03-30T21:46:44.571Z,10.13
2019-03-30T21:49:17.171Z,10.23
2019-03-30T21:51:49.775Z,9.47
2019-03-30T21:54:22.326Z,9.70
2019-03-30T21:56:54.869Z,10.40
2019-03-30T21:59:27.387Z,10.83
2019-03-30T22:01:59.985Z,10.83
2019-03-30T22:04:32.532Z,11.47
2019-03-30T22:07:05.184Z,11.73
2019-03-30T22:09:37.748Z,10.80
2019-03-30T22:12:10.349Z,10.93
2019-03-30T22:14:42.894Z,11.07
2019-03-30T22:17:15.454Z,10.50
2019-03-30T22:19:48.088Z,10.70
2019-03-30T22:22:20.620Z,11.37
2019-03-30T22:24:53.135Z,11.70
2019-03-30T22:27:25.681Z,10.73
2019-03-30T22:29:58.237Z,11.47
2019-03-30T22:32:30.801Z,11.37
2019-03-30T22:35:03.526Z,12.10
2019-03-30T22:37:36.062Z,12.37
2019-03-30T22:40:09.744Z,11.07
2019-03-30T22:42:42.253Z,11.70
2019-03-30T22:45:14.786Z,12.23
2019-03-30T22:47:47.335Z,11.90
2019-03-30T22:50:19.886Z,10.93
2019-03-30T22:52:52.487Z,11.73
2019-03-30T22:55:25.091Z,12.07
2019-03-30T22:57:57.635Z,12.13
2019-03-30T23:00:48.147Z,11.60
2019-03-30T23:03:20.716Z,12.47
2019-03-30T23:05:53.264Z,11.50
2019-03-30T23:08:25.823Z,10.90
2019-03-30T23:10:58.365Z,10.80
2019-03-30T23:13:30.935Z,13.17
2019-03-30T23:16:03.472Z,12.53
2019-03-30T23:18:36.052Z,12.40
2019-03-30T23:21:08.556Z,13.00
2019-03-30T23:23:41.116Z,11.90
2019-03-30T23:26:13.629Z,12.10
2019-03-30T23:28:46.209Z,12.00
2019-03-30T23:31:18.718Z,11.57
2019-03-30T23:33:51.332Z,11.70
2019-03-30T23:36:23.855Z,12.13
2019-03-30T23:38:56.416Z,11.57
2019-03-30T23:41:28.937Z,12.07
2019-03-30T23:44:01.466Z,11.77
2019-03-30T23:46:34.068Z,12.23
2019-03-30T23:49:06.621Z,12.87
2019-03-30T23:51:39.393Z,13.13
2019-03-30T23:54:14.771Z,14.40
2019-03-30T23:56:47.295Z,12.97
2019-03-30T23:59:19.853Z,13.07
